createdAt,value
2018-09-07T00:02:10.481Z,16.20
2018-09-07T00:04:38.467Z,16.20
2018-09-07T00:07:06.365Z,16.20
2018-09-07T00:09:34.329Z,16.20
2018-09-07T00:12:02.335Z,16.10
2018-09-07T00:14:30.322Z,16.10
2018-09-07T00:16:58.241Z,16.00
2018-09-07T00:19:26.175Z,16.20
2018-09-07T00:21:54.053Z,16.20
2018-09-07T00:24:22.016Z,16.30
2018-09-07T00:26:49.932Z,16.10
2018-09-07T00:29:17.837Z,15.90
2018-09-07T00:31:45.788Z,15.70
2018-09-07T00:34:13.700Z,15.60
2018-09-07T00:36:41.673Z,15.60
2018-09-07T00:39:09.614Z,15.50
2018-09-07T00:41:37.525Z,15.50
2018-09-07T00:44:05.495Z,15.40
2018-09-07T00:46:33.514Z,15.40
2018-09-07T00:49:01.461Z,15.40
2018-09-07T00:51:29.338Z,15.60
2018-09-07T00:53:57.265Z,15.50
2018-09-07T00:56:25.148Z,15.60
2018-09-07T00:58:53.076Z,15.60
2018-09-07T01:01:20.981Z,15.60
2018-09-07T01:03:48.855Z,15.50
2018-09-07T01:06:16.813Z,15.50
2018-09-07T01:08:44.778Z,15.50
2018-09-07T01:11:12.681Z,15.40
2018-09-07T01:13:40.689Z,15.40
2018-09-07T01:16:08.767Z,15.40
2018-09-07T01:18:36.773Z,15.40
2018-09-07T01:21:04.775Z,15.50
2018-09-07T01:23:32.794Z,15.50
2018-09-07T01:26:00.785Z,15.50
2018-09-07T01:28:28.728Z,15.50
2018-09-07T01:30:56.647Z,15.50
2018-09-07T01:33:24.570Z,15.50
2018-09-07T01:35:52.582Z,15.50
2018-09-07T01:38:26.167Z,15.40
2018-09-07T01:40:54.040Z,15.40
2018-09-07T01:43:21.897Z,15.40
2018-09-07T01:45:49.767Z,15.60
2018-09-07T01:48:17.645Z,15.70
2018-09-07T01:50:45.592Z,15.70
2018-09-07T01:53:13.568Z,15.70
2018-09-07T01:55:41.481Z,15.70
2018-09-07T01:58:09.377Z,15.70
2018-09-07T02:00:37.330Z,15.70
2018-09-07T02:03:10.831Z,15.60
2018-09-07T02:05:38.799Z,15.60
2018-09-07T02:08:06.725Z,15.60
2018-09-07T02:10:34.622Z,15.60
2018-09-07T02:13:02.525Z,15.50
2018-09-07T02:15:30.428Z,15.60
2018-09-07T02:17:58.328Z,15.60
2018-09-07T02:20:26.270Z,15.60
2018-09-07T02:22:54.246Z,15.60
2018-09-07T02:25:22.329Z,15.50
2018-09-07T02:27:50.397Z,15.60
2018-09-07T02:30:18.364Z,15.50
2018-09-07T02:32:46.279Z,15.60
2018-09-07T02:35:14.195Z,15.60
2018-09-07T02:37:42.098Z,15.70
2018-09-07T02:40:10.065Z,15.80
2018-09-07T02:42:37.949Z,15.80
2018-09-07T02:45:05.952Z,15.80
2018-09-07T02:47:33.838Z,16.00
2018-09-07T02:50:01.814Z,15.90
2018-09-07T02:52:29.771Z,15.90
2018-09-07T02:54:57.750Z,15.90
2018-09-07T02:57:26.483Z,15.90
2018-09-07T02:59:54.405Z,15.90
2018-09-07T03:02:22.342Z,16.00
2018-09-07T03:04:50.368Z,16.00
2018-09-07T03:07:18.302Z,15.90
2018-09-07T03:09:46.341Z,16.00
2018-09-07T03:12:14.305Z,16.10
2018-09-07T03:14:42.262Z,16.00
2018-09-07T03:17:10.170Z,16.00
2018-09-07T03:19:38.121Z,15.90
2018-09-07T03:22:06.150Z,16.10
2018-09-07T03:24:34.061Z,16.10
2018-09-07T03:27:02.051Z,15.90
2018-09-07T03:29:29.968Z,15.90
2018-09-07T03:31:57.873Z,16.00
2018-09-07T03:34:25.907Z,16.10
2018-09-07T03:36:53.829Z,16.00
2018-09-07T03:39:21.764Z,16.10
2018-09-07T03:41:50.265Z,16.00
2018-09-07T03:44:18.234Z,16.10
2018-09-07T03:46:46.214Z,16.10
2018-09-07T03:49:14.130Z,16.10
2018-09-07T03:51:42.096Z,16.00
2018-09-07T03:54:09.987Z,16.00
2018-09-07T03:56:37.938Z,16.00
2018-09-07T03:59:05.892Z,16.00
2018-09-07T04:01:33.986Z,16.00
2018-09-07T04:04:01.964Z,16.10
2018-09-07T04:06:29.969Z,16.30
2018-09-07T04:08:57.896Z,16.20
2018-09-07T04:11:25.949Z,16.20
2018-09-07T04:13:53.894Z,16.20
2018-09-07T04:16:21.843Z,16.10
2018-09-07T04:18:49.814Z,16.20
2018-09-07T04:21:17.765Z,16.10
2018-09-07T04:23:45.841Z,16.10
2018-09-07T04:26:13.879Z,16.20
2018-09-07T04:28:41.885Z,16.10
2018-09-07T04:31:09.862Z,16.10
2018-09-07T04:33:37.822Z,16.20
2018-09-07T04:36:05.836Z,16.20
2018-09-07T04:38:33.841Z,16.20
2018-09-07T04:41:01.801Z,16.30
2018-09-07T04:43:29.783Z,16.20
2018-09-07T04:45:57.783Z,16.20
2018-09-07T04:48:25.823Z,16.10
2018-09-07T04:50:53.673Z,16.20
2018-09-07T04:53:21.626Z,16.20
2018-09-07T04:55:49.590Z,16.30
2018-09-07T04:58:17.617Z,16.30
2018-09-07T05:00:45.689Z,16.30
2018-09-07T05:03:13.685Z,16.30
2018-09-07T05:05:41.676Z,16.30
2018-09-07T05:08:09.619Z,16.20
2018-09-07T05:10:37.699Z,16.30
2018-09-07T05:13:05.886Z,16.30
2018-09-07T05:15:33.893Z,16.20
2018-09-07T05:18:01.880Z,16.20
2018-09-07T05:20:29.949Z,16.30
2018-09-07T05:22:57.973Z,16.30
2018-09-07T05:25:25.928Z,16.30
2018-09-07T05:27:53.975Z,16.50
2018-09-07T05:30:21.998Z,16.40
2018-09-07T05:32:49.923Z,16.40
2018-09-07T05:35:17.957Z,16.40
2018-09-07T05:37:45.989Z,16.40
2018-09-07T05:40:14.044Z,16.40
2018-09-07T05:42:42.091Z,16.40
2018-09-07T05:45:10.002Z,16.40
2018-09-07T05:47:37.920Z,16.40
2018-09-07T05:50:05.929Z,16.50
2018-09-07T05:52:33.943Z,16.50
2018-09-07T05:55:01.875Z,16.50
2018-09-07T05:57:29.813Z,16.50
2018-09-07T05:59:57.741Z,16.50
2018-09-07T06:02:25.710Z,16.50
2018-09-07T06:04:53.624Z,16.50
2018-09-07T06:07:21.573Z,16.60
2018-09-07T06:09:49.516Z,16.70
2018-09-07T06:12:17.531Z,16.70
2018-09-07T06:14:45.530Z,16.80
2018-09-07T06:17:13.565Z,16.80
2018-09-07T06:19:41.528Z,16.90
2018-09-07T06:22:09.636Z,17.00
2018-09-07T06:24:37.519Z,17.10
2018-09-07T06:27:05.513Z,17.10
2018-09-07T06:29:33.473Z,17.20
2018-09-07T06:32:01.684Z,17.20
2018-09-07T06:34:29.675Z,17.30
2018-09-07T06:36:57.737Z,17.20
2018-09-07T06:39:25.735Z,17.20
2018-09-07T06:41:53.640Z,17.20
2018-09-07T06:44:21.644Z,17.20
2018-09-07T06:46:49.612Z,17.20
2018-09-07T06:49:17.530Z,17.30
2018-09-07T06:51:49.975Z,17.30
2018-09-07T06:54:17.866Z,17.30
2018-09-07T06:56:45.827Z,17.40
2018-09-07T06:59:13.871Z,17.60
2018-09-07T07:01:41.840Z,17.60
2018-09-07T07:04:09.790Z,17.60
2018-09-07T07:06:44.386Z,17.70
2018-09-07T07:09:12.336Z,17.70
2018-09-07T07:11:40.257Z,17.80
2018-09-07T07:14:08.269Z,17.80
2018-09-07T07:16:36.540Z,17.80
2018-09-07T07:19:04.481Z,17.90
2018-09-07T07:21:32.502Z,18.00
2018-09-07T07:24:00.474Z,18.10
2018-09-07T07:26:28.629Z,18.10
2018-09-07T07:28:56.581Z,18.20
2018-09-07T07:31:24.602Z,18.30
2018-09-07T07:33:52.697Z,18.40
2018-09-07T07:36:20.742Z,18.50
2018-09-07T07:38:48.932Z,18.50
2018-09-07T07:41:16.955Z,18.60
2018-09-07T07:43:44.941Z,18.50
2018-09-07T07:46:13.089Z,18.40
2018-09-07T07:48:41.033Z,18.50
2018-09-07T07:51:08.937Z,18.60
2018-09-07T07:53:36.903Z,18.70
2018-09-07T07:56:05.144Z,18.70
2018-09-07T07:58:33.149Z,18.80
2018-09-07T08:01:01.036Z,18.80
2018-09-07T08:03:28.997Z,18.90
2018-09-07T08:05:57.016Z,19.00
2018-09-07T08:08:25.030Z,19.00
2018-09-07T08:10:52.962Z,19.00
2018-09-07T08:13:20.926Z,19.10
2018-09-07T08:15:48.897Z,19.10
2018-09-07T08:18:16.923Z,19.10
2018-09-07T08:20:45.057Z,19.10
2018-09-07T08:23:12.989Z,19.10
2018-09-07T08:25:40.986Z,19.00
2018-09-07T08:28:08.923Z,19.00
2018-09-07T08:30:36.977Z,19.10
2018-09-07T08:33:05.096Z,19.10
2018-09-07T08:35:33.005Z,19.20
2018-09-07T08:38:01.003Z,19.20
2018-09-07T08:40:29.110Z,19.10
2018-09-07T08:42:57.125Z,19.20
2018-09-07T08:45:25.506Z,19.10
2018-09-07T08:47:53.487Z,19.10
2018-09-07T08:50:25.545Z,19.20
2018-09-07T08:52:55.430Z,19.20
2018-09-07T08:55:23.325Z,19.10
2018-09-07T08:57:51.201Z,19.00
2018-09-07T09:00:19.357Z,19.10
2018-09-07T09:02:47.296Z,19.20
2018-09-07T09:05:15.305Z,19.20
2018-09-07T09:07:43.246Z,19.30
2018-09-07T09:10:11.206Z,19.50
2018-09-07T09:12:39.198Z,19.60
2018-09-07T09:15:07.229Z,19.50
2018-09-07T09:17:35.267Z,19.60
2018-09-07T09:20:03.430Z,19.60
2018-09-07T09:22:31.375Z,19.70
2018-09-07T09:25:00.236Z,19.70
2018-09-07T09:27:28.231Z,19.70
2018-09-07T09:29:56.224Z,19.80
2018-09-07T09:32:24.150Z,19.80
2018-09-07T09:34:52.098Z,19.70
2018-09-07T09:37:20.059Z,19.60
2018-09-07T09:39:48.016Z,19.70
2018-09-07T09:42:16.077Z,19.80
2018-09-07T09:44:44.100Z,19.80
2018-09-07T09:47:12.211Z,19.90
2018-09-07T09:49:40.275Z,20.00
2018-09-07T09:52:08.218Z,20.10
2018-09-07T09:54:36.169Z,20.10
2018-09-07T09:57:04.209Z,20.00
2018-09-07T09:59:32.103Z,20.20
2018-09-07T10:02:05.521Z,20.00
2018-09-07T10:04:34.063Z,20.10
2018-09-07T10:07:02.133Z,20.10
2018-09-07T10:09:30.735Z,20.30
2018-09-07T10:11:58.765Z,20.50
2018-09-07T10:14:27.069Z,20.40
2018-09-07T10:16:54.985Z,20.20
2018-09-07T10:19:22.972Z,20.40
2018-09-07T10:21:50.881Z,20.30
2018-09-07T10:24:18.791Z,20.50
2018-09-07T10:26:46.723Z,20.80
2018-09-07T10:29:14.669Z,21.00
2018-09-07T10:31:42.713Z,21.00
2018-09-07T10:34:10.595Z,21.10
2018-09-07T10:36:38.881Z,21.10
2018-09-07T10:39:08.494Z,21.00
2018-09-07T10:41:36.435Z,21.00
2018-09-07T10:44:04.874Z,21.10
2018-09-07T10:46:32.932Z,21.10
2018-09-07T10:49:00.915Z,21.10
2018-09-07T10:51:28.949Z,21.20
2018-09-07T10:53:57.447Z,21.10
2018-09-07T10:56:25.746Z,21.30
2018-09-07T10:58:54.141Z,21.30
2018-09-07T11:01:22.573Z,21.30
2018-09-07T11:03:50.542Z,21.50
2018-09-07T11:06:18.493Z,21.80
2018-09-07T11:08:46.517Z,21.80
2018-09-07T11:11:14.545Z,22.00
2018-09-07T11:13:43.432Z,22.30
2018-09-07T11:16:11.462Z,22.40
2018-09-07T11:18:39.409Z,22.40
2018-09-07T11:21:07.801Z,22.40
2018-09-07T11:23:36.645Z,22.30
2018-09-07T11:26:04.651Z,22.40
2018-09-07T11:28:32.892Z,22.10
2018-09-07T11:31:00.890Z,22.20
2018-09-07T11:33:28.861Z,22.30
2018-09-07T11:35:56.796Z,22.40
2018-09-07T11:38:24.715Z,22.40
2018-09-07T11:40:52.673Z,22.40
2018-09-07T11:43:20.805Z,22.60
2018-09-07T11:45:48.885Z,22.60
2018-09-07T11:48:16.820Z,22.60
2018-09-07T11:50:44.896Z,22.70
2018-09-07T11:53:12.941Z,22.70
2018-09-07T11:55:40.990Z,22.70
2018-09-07T11:58:09.132Z,22.60
2018-09-07T12:00:37.637Z,22.20
2018-09-07T12:03:05.650Z,22.20
2018-09-07T12:05:33.630Z,22.30
2018-09-07T12:08:01.636Z,22.50
2018-09-07T12:10:29.672Z,22.60
2018-09-07T12:12:57.681Z,22.70
2018-09-07T12:15:25.556Z,22.80
2018-09-07T12:17:53.556Z,22.90
2018-09-07T12:20:21.569Z,22.90
2018-09-07T12:22:49.545Z,22.90
2018-09-07T12:25:17.643Z,22.90
2018-09-07T12:27:46.605Z,23.00
2018-09-07T12:30:14.694Z,23.10
2018-09-07T12:32:42.794Z,23.20
2018-09-07T12:35:10.925Z,23.30
2018-09-07T12:37:38.857Z,23.40
2018-09-07T12:40:06.878Z,23.40
2018-09-07T12:42:34.951Z,23.60
2018-09-07T12:45:03.867Z,23.70
2018-09-07T12:47:31.917Z,23.70
2018-09-07T12:49:59.983Z,23.70
2018-09-07T12:52:28.004Z,23.60
2018-09-07T12:54:56.478Z,23.60
2018-09-07T12:57:24.426Z,23.60
2018-09-07T12:59:53.036Z,23.60
2018-09-07T13:02:21.030Z,23.70
2018-09-07T13:04:48.973Z,23.90
2018-09-07T13:07:16.966Z,23.80
2018-09-07T13:09:45.035Z,23.90
2018-09-07T13:12:13.065Z,23.90
2018-09-07T13:14:41.158Z,24.00
2018-09-07T13:17:09.126Z,24.00
2018-09-07T13:19:37.079Z,24.00
2018-09-07T13:22:05.141Z,24.00
2018-09-07T13:24:33.221Z,24.00
2018-09-07T13:27:01.203Z,24.30
2018-09-07T13:29:29.292Z,24.40
2018-09-07T13:31:57.218Z,24.40
2018-09-07T13:34:25.282Z,24.50
2018-09-07T13:36:53.198Z,24.60
2018-09-07T13:39:21.113Z,24.40
2018-09-07T13:41:49.127Z,24.40
2018-09-07T13:44:17.094Z,24.50
2018-09-07T13:46:45.077Z,24.50
2018-09-07T13:49:12.997Z,24.70
2018-09-07T13:51:41.023Z,24.90
2018-09-07T13:54:08.972Z,24.90
2018-09-07T13:56:43.583Z,24.60
2018-09-07T13:59:11.536Z,24.50
2018-09-07T14:01:39.477Z,24.30
2018-09-07T14:04:07.458Z,24.10
2018-09-07T14:06:35.489Z,24.00
2018-09-07T14:09:05.048Z,24.00
2018-09-07T14:11:32.941Z,23.60
2018-09-07T14:14:00.857Z,23.20
2018-09-07T14:16:28.839Z,23.00
2018-09-07T14:18:56.791Z,22.80
2018-09-07T14:21:24.772Z,22.70
2018-09-07T14:23:52.731Z,22.40
2018-09-07T14:26:22.149Z,22.30
2018-09-07T14:28:50.167Z,22.30
2018-09-07T14:31:18.146Z,22.30
2018-09-07T14:33:46.128Z,22.00
2018-09-07T14:36:14.855Z,21.90
2018-09-07T14:38:43.114Z,21.80
2018-09-07T14:41:11.056Z,21.80
2018-09-07T14:43:38.997Z,22.00
2018-09-07T14:46:07.175Z,21.90
2018-09-07T14:48:35.155Z,21.90
2018-09-07T14:51:03.053Z,22.10
2018-09-07T14:53:30.961Z,21.80
2018-09-07T14:55:58.861Z,21.70
2018-09-07T14:58:26.751Z,21.40
2018-09-07T15:00:54.678Z,21.10
2018-09-07T15:03:22.589Z,20.90
2018-09-07T15:05:50.514Z,20.60
2018-09-07T15:08:18.418Z,20.10
2018-09-07T15:10:46.372Z,19.90
2018-09-07T15:13:14.316Z,20.10
2018-09-07T15:15:42.278Z,20.10
2018-09-07T15:18:10.217Z,20.30
2018-09-07T15:20:38.165Z,20.20
2018-09-07T15:23:06.249Z,20.50
2018-09-07T15:25:34.190Z,20.70
2018-09-07T15:28:02.236Z,20.90
2018-09-07T15:30:30.198Z,20.90
2018-09-07T15:32:58.089Z,21.10
2018-09-07T15:35:26.141Z,21.50
2018-09-07T15:37:54.379Z,21.90
2018-09-07T15:40:22.368Z,22.30
2018-09-07T15:42:50.375Z,22.60
2018-09-07T15:45:19.361Z,23.00
2018-09-07T15:47:47.302Z,23.40
2018-09-07T15:50:15.298Z,23.70
2018-09-07T15:52:43.199Z,23.70
2018-09-07T15:55:11.169Z,23.70
2018-09-07T15:57:39.216Z,23.50
2018-09-07T16:00:07.320Z,23.50
2018-09-07T16:02:35.269Z,23.50
2018-09-07T16:05:03.234Z,23.70
2018-09-07T16:07:31.201Z,23.50
2018-09-07T16:09:59.324Z,23.50
2018-09-07T16:12:27.313Z,23.70
2018-09-07T16:14:55.331Z,23.70
2018-09-07T16:17:23.549Z,23.60
2018-09-07T16:19:51.683Z,23.20
2018-09-07T16:22:19.855Z,23.20
2018-09-07T16:24:47.798Z,23.40
2018-09-07T16:27:15.845Z,23.60
2018-09-07T16:29:43.950Z,23.50
2018-09-07T16:32:13.010Z,23.20
2018-09-07T16:34:41.007Z,23.10
2018-09-07T16:37:09.005Z,23.40
2018-09-07T16:39:36.935Z,23.20
2018-09-07T16:42:04.990Z,23.20
2018-09-07T16:44:33.464Z,23.30
2018-09-07T16:47:01.514Z,23.50
2018-09-07T16:49:29.618Z,23.60
2018-09-07T16:51:57.597Z,23.30
2018-09-07T16:54:25.735Z,23.20
2018-09-07T16:56:54.179Z,23.60
2018-09-07T16:59:22.480Z,24.00
2018-09-07T17:01:50.762Z,24.00
2018-09-07T17:04:18.835Z,24.10
2018-09-07T17:06:47.556Z,24.00
2018-09-07T17:09:15.610Z,23.90
2018-09-07T17:11:43.734Z,23.80
2018-09-07T17:14:11.768Z,23.80
2018-09-07T17:16:39.930Z,23.70
2018-09-07T17:19:08.067Z,23.50
2018-09-07T17:21:36.589Z,23.50
2018-09-07T17:24:04.696Z,23.30
2018-09-07T17:26:32.759Z,23.10
2018-09-07T17:29:00.881Z,22.90
2018-09-07T17:31:29.076Z,22.50
2018-09-07T17:33:57.288Z,22.30
2018-09-07T17:36:25.349Z,22.30
2018-09-07T17:38:53.415Z,22.00
2018-09-07T17:41:21.461Z,21.80
2018-09-07T17:43:49.536Z,21.70
2018-09-07T17:46:17.646Z,21.70
2018-09-07T17:48:45.689Z,21.50
2018-09-07T17:51:13.725Z,21.30
2018-09-07T17:53:41.845Z,21.10
2018-09-07T17:56:09.866Z,20.90
2018-09-07T17:58:37.988Z,20.80
2018-09-07T18:01:05.969Z,20.80
2018-09-07T18:03:34.046Z,20.70
2018-09-07T18:06:03.177Z,20.40
2018-09-07T18:08:31.185Z,20.30
2018-09-07T18:10:59.246Z,20.30
2018-09-07T18:13:27.286Z,20.20
2018-09-07T18:15:55.344Z,20.20
2018-09-07T18:18:23.444Z,20.30
2018-09-07T18:20:51.360Z,20.30
2018-09-07T18:23:20.312Z,20.30
2018-09-07T18:25:48.277Z,20.20
2018-09-07T18:28:16.403Z,20.10
2018-09-07T18:30:44.660Z,20.10
2018-09-07T18:33:12.579Z,20.00
2018-09-07T18:35:40.968Z,19.80
2018-09-07T18:38:08.507Z,19.50
2018-09-07T18:40:36.535Z,19.40
2018-09-07T18:43:04.546Z,19.40
2018-09-07T18:45:32.490Z,19.30
2018-09-07T18:48:00.445Z,19.20
2018-09-07T18:50:28.357Z,19.20
2018-09-07T18:52:56.267Z,19.10
2018-09-07T18:55:24.221Z,19.10
2018-09-07T18:57:52.590Z,18.80
2018-09-07T19:00:20.523Z,18.70
2018-09-07T19:02:48.513Z,18.70
2018-09-07T19:05:16.457Z,18.60
2018-09-07T19:07:44.635Z,18.50
2018-09-07T19:10:12.573Z,18.40
2018-09-07T19:12:40.577Z,18.40
2018-09-07T19:15:08.539Z,18.40
2018-09-07T19:17:36.444Z,18.50
2018-09-07T19:20:04.452Z,18.50
2018-09-07T19:22:32.415Z,18.40
2018-09-07T19:25:00.376Z,18.30
2018-09-07T19:27:29.083Z,18.20
2018-09-07T19:29:57.091Z,18.20
2018-09-07T19:32:25.019Z,18.10
2018-09-07T19:34:52.998Z,18.00
2018-09-07T19:37:20.957Z,18.00
2018-09-07T19:39:48.942Z,17.90
2018-09-07T19:42:17.218Z,17.80
2018-09-07T19:44:45.172Z,17.80
2018-09-07T19:47:13.129Z,17.80
2018-09-07T19:49:41.364Z,17.90
2018-09-07T19:52:09.334Z,17.80
2018-09-07T19:54:37.784Z,17.60
2018-09-07T19:57:05.718Z,17.50
2018-09-07T19:59:33.731Z,17.40
2018-09-07T20:02:01.769Z,17.30
2018-09-07T20:04:29.906Z,17.30
2018-09-07T20:06:58.857Z,17.30
2018-09-07T20:09:27.517Z,17.30
2018-09-07T20:11:56.463Z,17.30
2018-09-07T20:14:24.431Z,17.30
2018-09-07T20:16:52.654Z,17.20
2018-09-07T20:19:21.621Z,17.20
2018-09-07T20:21:49.690Z,17.10
2018-09-07T20:24:17.589Z,17.00
2018-09-07T20:26:45.617Z,16.90
2018-09-07T20:29:13.593Z,17.00
2018-09-07T20:31:41.621Z,17.00
2018-09-07T20:34:09.634Z,16.90
2018-09-07T20:36:37.601Z,16.80
2018-09-07T20:39:07.765Z,16.80
2018-09-07T20:41:35.940Z,16.80
2018-09-07T20:44:03.942Z,16.70
2018-09-07T20:46:32.128Z,16.70
2018-09-07T20:49:00.067Z,16.70
2018-09-07T20:51:28.138Z,16.70
2018-09-07T20:53:56.182Z,16.70
2018-09-07T20:56:24.373Z,16.70
2018-09-07T20:58:52.567Z,16.80
2018-09-07T21:01:20.506Z,17.00
2018-09-07T21:03:48.593Z,17.10
2018-09-07T21:06:16.656Z,17.20
2018-09-07T21:08:44.658Z,17.10
2018-09-07T21:11:12.825Z,16.90
2018-09-07T21:13:41.248Z,16.80
2018-09-07T21:16:09.686Z,16.70
2018-09-07T21:18:37.625Z,16.70
2018-09-07T21:21:05.735Z,16.70
2018-09-07T21:23:33.774Z,16.70
2018-09-07T21:26:01.736Z,16.70
2018-09-07T21:28:29.738Z,16.90
2018-09-07T21:30:57.674Z,16.90
2018-09-07T21:33:25.623Z,16.90
2018-09-07T21:35:53.577Z,16.90
2018-09-07T21:38:21.529Z,16.80
2018-09-07T21:40:49.506Z,17.00
2018-09-07T21:43:17.500Z,17.00
2018-09-07T21:45:45.490Z,17.10
2018-09-07T21:48:13.400Z,17.30
2018-09-07T21:50:41.304Z,17.20
2018-09-07T21:53:09.227Z,17.10
2018-09-07T21:55:37.172Z,17.20
2018-09-07T21:58:05.276Z,17.10
2018-09-07T22:00:33.299Z,17.00
2018-09-07T22:03:01.246Z,16.90
2018-09-07T22:05:29.204Z,16.90
2018-09-07T22:08:03.092Z,17.00
2018-09-07T22:10:31.772Z,17.10
2018-09-07T22:12:59.747Z,17.10
2018-09-07T22:15:27.722Z,17.00
2018-09-07T22:17:55.885Z,17.00
2018-09-07T22:20:24.078Z,16.80
2018-09-07T22:22:52.209Z,16.90
2018-09-07T22:25:20.126Z,17.00
2018-09-07T22:27:48.233Z,17.00
2018-09-07T22:30:16.247Z,17.10
2018-09-07T22:32:44.223Z,17.30
2018-09-07T22:35:12.168Z,17.20
2018-09-07T22:37:40.105Z,17.00
2018-09-07T22:40:08.194Z,17.00
2018-09-07T22:42:36.101Z,17.00
2018-09-07T22:45:04.183Z,16.90
2018-09-07T22:47:32.178Z,16.90
2018-09-07T22:50:00.101Z,17.00
2018-09-07T22:52:28.060Z,17.10
2018-09-07T22:54:56.045Z,17.00
2018-09-07T22:57:24.011Z,16.90
2018-09-07T22:59:51.992Z,16.90
2018-09-07T23:02:19.937Z,16.90
2018-09-07T23:04:48.009Z,16.90
2018-09-07T23:07:15.955Z,17.00
2018-09-07T23:09:43.891Z,16.90
2018-09-07T23:12:11.884Z,17.00
2018-09-07T23:14:39.840Z,17.10
2018-09-07T23:17:07.846Z,17.20
2018-09-07T23:19:35.785Z,17.10
2018-09-07T23:22:04.675Z,17.00
2018-09-07T23:24:32.674Z,17.10
2018-09-07T23:27:00.637Z,17.00
2018-09-07T23:29:28.621Z,16.90
2018-09-07T23:31:56.518Z,17.10
2018-09-07T23:34:24.406Z,17.10
2018-09-07T23:36:52.396Z,17.10
2018-09-07T23:39:20.331Z,17.10
2018-09-07T23:41:48.295Z,17.00
2018-09-07T23:44:16.216Z,17.00
2018-09-07T23:46:44.144Z,16.90
2018-09-07T23:49:12.082Z,16.80
2018-09-07T23:51:40.090Z,16.80
2018-09-07T23:54:08.054Z,16.60
2018-09-07T23:56:35.940Z,16.50
2018-09-07T23:59:03.960Z,16.50
